createdAt,value
2023-03-06T00:01:01.283Z,6.67
2023-03-06T00:03:28.625Z,4.30
2023-03-06T00:05:57.895Z,8.00
2023-03-06T00:08:26.605Z,5.43
2023-03-06T00:10:54.430Z,7.37
2023-03-06T00:13:22.699Z,6.73
2023-03-06T00:15:50.217Z,6.43
2023-03-06T00:18:17.339Z,7.00
2023-03-06T00:20:44.695Z,6.87
2023-03-06T00:23:12.262Z,7.77
2023-03-06T00:25:43.756Z,6.73
2023-03-06T00:28:12.335Z,6.85
2023-03-06T00:30:39.995Z,7.20
2023-03-06T00:33:07.497Z,6.77
2023-03-06T00:35:34.475Z,6.57
2023-03-06T00:38:01.436Z,5.70
2023-03-06T00:40:28.452Z,7.43
2023-03-06T00:42:55.842Z,6.77
2023-03-06T00:45:23.438Z,6.67
2023-03-06T00:47:50.477Z,7.17
2023-03-06T00:50:17.591Z,6.07
2023-03-06T00:52:44.543Z,7.10
2023-03-06T00:55:12.195Z,5.73
2023-03-06T00:57:39.159Z,5.83
2023-03-06T01:00:07.710Z,5.17
2023-03-06T01:02:35.360Z,7.80
2023-03-06T01:05:03.044Z,5.93
2023-03-06T01:07:33.986Z,6.83
2023-03-06T01:10:01.340Z,6.43
2023-03-06T01:12:28.310Z,6.30
2023-03-06T01:14:55.207Z,6.97
2023-03-06T01:17:22.194Z,6.10
2023-03-06T01:19:49.635Z,6.33
2023-03-06T01:22:16.627Z,7.53
2023-03-06T01:24:43.946Z,8.43
2023-03-06T01:27:10.884Z,5.70
2023-03-06T01:29:37.861Z,5.60
2023-03-06T01:32:05.186Z,5.77
2023-03-06T01:34:32.539Z,6.30
2023-03-06T01:36:59.497Z,5.73
2023-03-06T01:39:28.562Z,6.53
2023-03-06T01:41:55.890Z,5.53
2023-03-06T01:44:23.277Z,5.13
2023-03-06T01:46:50.601Z,5.07
2023-03-06T01:49:29.451Z,5.63
2023-03-06T01:52:05.623Z,5.50
2023-03-06T01:54:42.335Z,4.70
2023-03-06T01:57:15.380Z,6.20
2023-03-06T01:59:43.402Z,5.13
2023-03-06T02:02:12.823Z,4.53
2023-03-06T02:04:42.603Z,5.87
2023-03-06T02:07:10.433Z,5.07
2023-03-06T02:09:38.724Z,5.67
2023-03-06T02:12:16.727Z,5.97
2023-03-06T02:14:44.835Z,5.27
2023-03-06T02:17:14.585Z,6.50
2023-03-06T02:20:20.304Z,4.83
2023-03-06T02:23:21.482Z,6.27
2023-03-06T02:25:51.638Z,4.47
2023-03-06T02:28:24.999Z,4.43
2023-03-06T02:30:55.693Z,5.67
2023-03-06T02:33:27.997Z,6.17
2023-03-06T02:36:03.955Z,5.53
2023-03-06T02:38:50.321Z,5.80
2023-03-06T02:41:19.971Z,5.57
2023-03-06T02:43:49.277Z,5.10
2023-03-06T02:46:16.405Z,4.77
2023-03-06T02:48:43.662Z,6.80
2023-03-06T02:51:10.616Z,6.20
2023-03-06T02:53:37.953Z,4.07
2023-03-06T02:56:05.083Z,7.10
2023-03-06T02:58:32.078Z,6.53
2023-03-06T03:00:59.499Z,6.77
2023-03-06T03:03:26.645Z,6.30
2023-03-06T03:05:54.250Z,6.07
2023-03-06T03:08:25.626Z,7.27
2023-03-06T03:10:57.099Z,7.47
2023-03-06T03:13:25.683Z,5.40
2023-03-06T03:16:07.352Z,6.47
2023-03-06T03:18:35.197Z,7.03
2023-03-06T03:21:02.990Z,6.20
2023-03-06T03:23:30.333Z,5.97
2023-03-06T03:26:10.931Z,7.20
2023-03-06T03:28:41.797Z,6.80
2023-03-06T03:31:11.600Z,8.50
2023-03-06T03:33:40.767Z,8.67
2023-03-06T03:36:08.807Z,6.87
2023-03-06T03:38:40.296Z,6.22
2023-03-06T03:41:07.252Z,8.27
2023-03-06T03:43:34.704Z,7.40
2023-03-06T03:46:02.045Z,6.27
2023-03-06T03:48:29.593Z,6.20
2023-03-06T03:51:09.127Z,6.57
2023-03-06T03:53:39.824Z,5.43
2023-03-06T03:56:08.888Z,4.63
2023-03-06T03:58:43.167Z,6.57
2023-03-06T04:01:10.428Z,5.47
2023-03-06T04:03:37.747Z,7.70
2023-03-06T04:06:07.157Z,7.17
2023-03-06T04:08:35.415Z,6.70
2023-03-06T04:11:03.294Z,6.23
2023-03-06T04:13:32.378Z,7.40
2023-03-06T04:16:00.159Z,11.73
2023-03-06T04:18:29.532Z,10.23
2023-03-06T04:21:00.842Z,6.87
2023-03-06T04:23:28.064Z,8.37
2023-03-06T04:25:55.944Z,8.23
2023-03-06T04:28:23.709Z,8.47
2023-03-06T04:30:51.318Z,5.13
2023-03-06T04:33:20.040Z,8.57
2023-03-06T04:35:47.522Z,6.37
2023-03-06T04:38:20.411Z,9.27
2023-03-06T04:40:49.572Z,9.87
2023-03-06T04:43:16.964Z,9.03
2023-03-06T04:45:44.013Z,8.73
2023-03-06T04:48:15.382Z,8.83
2023-03-06T04:50:42.536Z,6.87
2023-03-06T04:53:10.937Z,6.77
2023-03-06T04:55:38.443Z,7.57
2023-03-06T04:58:05.673Z,8.33
2023-03-06T05:00:32.972Z,6.80
2023-03-06T05:03:01.808Z,7.57
2023-03-06T05:05:29.317Z,8.90
2023-03-06T05:07:56.992Z,6.67
2023-03-06T05:10:24.143Z,7.07
2023-03-06T05:12:51.611Z,7.03
2023-03-06T05:15:19.238Z,6.27
2023-03-06T05:17:47.506Z,5.67
2023-03-06T05:20:15.830Z,3.40
2023-03-06T05:22:43.564Z,4.13
2023-03-06T05:25:10.917Z,4.57
2023-03-06T05:27:38.585Z,5.50
2023-03-06T05:30:06.720Z,5.20
2023-03-06T05:32:35.553Z,5.80
2023-03-06T05:35:03.728Z,3.77
2023-03-06T05:37:31.160Z,7.13
2023-03-06T05:39:58.180Z,6.03
2023-03-06T05:42:27.627Z,7.00
2023-03-06T05:44:56.033Z,7.27
2023-03-06T05:47:23.122Z,4.20
2023-03-06T05:49:50.534Z,6.47
2023-03-06T05:52:17.971Z,5.13
2023-03-06T05:54:50.011Z,3.93
2023-03-06T05:57:18.687Z,6.07
2023-03-06T05:59:46.479Z,4.80
2023-03-06T06:02:13.558Z,4.43
2023-03-06T06:04:40.483Z,5.20
2023-03-06T06:07:07.553Z,4.93
2023-03-06T06:09:34.841Z,3.90
2023-03-06T06:12:03.756Z,3.87
2023-03-06T06:14:33.504Z,4.77
2023-03-06T06:17:00.672Z,4.77
2023-03-06T06:19:31.537Z,3.83
2023-03-06T06:21:58.845Z,3.47
2023-03-06T06:24:27.094Z,4.67
2023-03-06T06:26:56.426Z,4.80
2023-03-06T06:29:24.741Z,4.90
2023-03-06T06:31:52.222Z,5.77
2023-03-06T06:34:19.900Z,5.63
2023-03-06T06:36:47.474Z,3.73
2023-03-06T06:39:17.392Z,4.27
2023-03-06T06:42:02.386Z,3.33
2023-03-06T06:44:32.853Z,4.40
2023-03-06T06:47:21.834Z,3.97
2023-03-06T06:49:54.273Z,3.20
2023-03-06T06:52:22.049Z,4.70
2023-03-06T06:54:49.052Z,3.97
2023-03-06T06:57:16.594Z,5.07
2023-03-06T06:59:43.586Z,4.73
2023-03-06T07:02:13.488Z,4.27
2023-03-06T07:04:52.272Z,3.77
2023-03-06T07:07:28.044Z,3.00
2023-03-06T07:09:56.000Z,5.03
2023-03-06T07:12:23.075Z,4.73
2023-03-06T07:14:49.962Z,4.90
2023-03-06T07:17:16.875Z,3.23
2023-03-06T07:19:44.117Z,4.00
2023-03-06T07:22:11.492Z,4.43
2023-03-06T07:24:38.811Z,3.73
2023-03-06T07:27:06.165Z,4.90
2023-03-06T07:29:34.461Z,3.67
2023-03-06T07:32:01.934Z,3.73
2023-03-06T07:34:29.573Z,3.63
2023-03-06T07:36:56.493Z,4.23
2023-03-06T07:39:23.501Z,5.23
2023-03-06T07:41:52.052Z,3.97
2023-03-06T07:44:19.031Z,4.73
2023-03-06T07:46:46.410Z,3.77
2023-03-06T07:49:13.802Z,4.33
2023-03-06T07:51:41.068Z,4.33
2023-03-06T07:54:08.125Z,5.57
2023-03-06T07:56:35.519Z,4.20
2023-03-06T07:59:02.543Z,4.10
2023-03-06T08:01:29.580Z,2.90
2023-03-06T08:03:57.027Z,4.37
2023-03-06T08:06:27.426Z,4.20
2023-03-06T08:08:55.876Z,4.73
2023-03-06T08:11:26.307Z,4.97
2023-03-06T08:13:54.177Z,3.77
2023-03-06T08:16:28.825Z,3.60
2023-03-06T08:18:56.766Z,4.67
2023-03-06T08:21:26.616Z,4.53
2023-03-06T08:23:54.459Z,4.13
2023-03-06T08:26:28.935Z,2.03
2023-03-06T08:28:58.243Z,3.27
2023-03-06T08:31:40.611Z,3.37
2023-03-06T08:34:20.653Z,2.63
2023-03-06T08:36:47.782Z,4.03
2023-03-06T08:39:15.145Z,3.60
2023-03-06T08:41:42.375Z,3.23
2023-03-06T08:44:10.065Z,3.90
2023-03-06T08:46:37.605Z,2.70
2023-03-06T08:49:05.144Z,3.83
2023-03-06T08:51:34.786Z,3.13
2023-03-06T08:54:01.684Z,3.60
2023-03-06T08:56:34.141Z,3.27
2023-03-06T08:59:03.928Z,3.67
2023-03-06T09:01:36.686Z,2.47
2023-03-06T09:04:10.531Z,4.03
2023-03-06T09:06:42.453Z,2.13
2023-03-06T09:09:09.872Z,3.38
2023-03-06T09:11:37.241Z,3.80
2023-03-06T09:14:05.672Z,3.50
2023-03-06T09:16:33.256Z,3.77
2023-03-06T09:19:00.640Z,3.70
2023-03-06T09:21:28.590Z,3.97
2023-03-06T09:23:55.720Z,3.83
2023-03-06T09:26:27.950Z,3.90
2023-03-06T09:28:59.984Z,3.63
2023-03-06T09:31:26.864Z,4.60
2023-03-06T09:33:53.764Z,5.03
2023-03-06T09:36:22.376Z,3.57
2023-03-06T09:38:49.946Z,4.87
2023-03-06T09:41:44.757Z,5.53
2023-03-06T09:44:23.764Z,5.50
2023-03-06T09:47:15.763Z,4.23
2023-03-06T09:50:12.082Z,3.88
2023-03-06T09:53:38.909Z,4.17
2023-03-06T09:56:31.083Z,3.07
2023-03-06T09:59:12.740Z,4.55
2023-03-06T10:01:45.225Z,4.03
2023-03-06T10:04:32.808Z,5.30
2023-03-06T10:07:22.791Z,3.27
2023-03-06T10:09:57.238Z,3.77
2023-03-06T10:12:48.315Z,4.43
2023-03-06T10:15:25.130Z,4.17
2023-03-06T10:17:52.439Z,4.17
2023-03-06T10:20:48.738Z,4.07
2023-03-06T10:23:53.498Z,4.37
2023-03-06T10:26:26.212Z,4.30
2023-03-06T10:29:21.724Z,4.47
2023-03-06T10:31:58.311Z,4.77
2023-03-06T10:34:32.840Z,4.97
2023-03-06T10:37:05.977Z,4.33
2023-03-06T10:39:33.225Z,3.67
2023-03-06T10:42:00.501Z,6.57
2023-03-06T10:44:27.837Z,4.17
2023-03-06T10:46:55.076Z,4.80
2023-03-06T10:49:37.712Z,2.83
2023-03-06T10:52:22.118Z,3.90
2023-03-06T10:54:49.424Z,4.47
2023-03-06T10:57:28.321Z,1.00
2023-03-06T11:00:06.779Z,2.97
2023-03-06T11:02:37.197Z,2.30
2023-03-06T11:05:05.755Z,5.70
2023-03-06T11:07:37.267Z,4.40
2023-03-06T11:10:19.315Z,2.42
2023-03-06T11:13:16.139Z,3.65
2023-03-06T11:16:26.926Z,2.30
2023-03-06T11:18:59.412Z,5.57
2023-03-06T11:21:34.406Z,3.73
2023-03-06T11:24:08.250Z,5.13
2023-03-06T11:26:43.125Z,3.83
2023-03-06T11:29:40.690Z,3.77
2023-03-06T11:32:14.470Z,3.83
2023-03-06T11:35:05.170Z,2.30
2023-03-06T11:37:32.373Z,3.33
2023-03-06T11:40:28.468Z,3.93
2023-03-06T11:43:17.191Z,4.67
2023-03-06T11:46:10.758Z,1.33
2023-03-06T11:48:47.958Z,3.83
2023-03-06T11:51:23.384Z,3.70
2023-03-06T11:53:50.324Z,3.67
2023-03-06T11:56:20.598Z,4.77
2023-03-06T11:59:26.023Z,3.93
2023-03-06T12:02:39.194Z,4.15
2023-03-06T12:05:39.296Z,4.05
2023-03-06T12:08:28.671Z,2.97
2023-03-06T12:11:10.384Z,3.37
2023-03-06T12:14:07.009Z,4.20
2023-03-06T12:16:52.534Z,4.07
2023-03-06T12:19:57.510Z,5.07
2023-03-06T12:23:14.149Z,4.28
2023-03-06T12:25:59.636Z,5.10
2023-03-06T12:28:55.010Z,4.07
2023-03-06T12:32:17.635Z,3.35
2023-03-06T12:35:30.793Z,3.25
2023-03-06T12:38:12.734Z,4.45
2023-03-06T12:40:47.560Z,5.28
2023-03-06T12:43:42.154Z,5.32
2023-03-06T12:46:17.024Z,4.35
2023-03-06T12:49:08.565Z,5.72
2023-03-06T12:51:36.506Z,4.78
2023-03-06T12:54:03.924Z,5.55
2023-03-06T12:56:32.356Z,4.40
2023-03-06T12:59:03.195Z,1.92
2023-03-06T13:01:42.561Z,4.82
2023-03-06T13:04:36.611Z,3.53
2023-03-06T13:07:14.173Z,4.65
2023-03-06T13:10:25.809Z,4.68
2023-03-06T13:13:01.989Z,3.70
2023-03-06T13:15:46.040Z,4.75
2023-03-06T13:18:22.047Z,3.40
2023-03-06T13:20:56.119Z,2.75
2023-03-06T13:23:43.173Z,2.13
2023-03-06T13:26:32.238Z,3.75
2023-03-06T13:28:59.629Z,3.00
2023-03-06T13:31:52.383Z,3.67
2023-03-06T13:37:17.118Z,4.32
2023-03-06T13:39:56.764Z,4.25
2023-03-06T13:42:39.601Z,3.95
2023-03-06T13:45:27.301Z,2.83
2023-03-06T13:48:33.896Z,3.35
2023-03-06T13:50:46.834Z,4.18
2023-03-06T13:53:51.214Z,3.25
2023-03-06T13:57:23.452Z,4.90
2023-03-06T14:00:11.898Z,3.50
2023-03-06T14:02:55.839Z,3.97
2023-03-06T14:05:23.673Z,5.43
2023-03-06T14:08:10.741Z,3.90
2023-03-06T14:10:39.263Z,4.30
2023-03-06T14:13:30.015Z,4.85
2023-03-06T14:15:59.333Z,3.67
2023-03-06T14:18:40.139Z,3.85
2023-03-06T14:21:13.441Z,4.40
2023-03-06T14:23:44.816Z,2.75
2023-03-06T14:26:19.431Z,1.60
2023-03-06T14:28:52.340Z,1.52
2023-03-06T14:31:23.626Z,4.35
2023-03-06T14:33:57.486Z,3.90
2023-03-06T14:36:48.530Z,3.15
2023-03-06T14:39:20.804Z,3.60
2023-03-06T14:44:24.357Z,2.85
2023-03-06T14:46:58.474Z,4.35
2023-03-06T14:49:26.613Z,4.55
2023-03-06T14:51:56.396Z,3.13
2023-03-06T14:54:37.005Z,3.70
2023-03-06T14:57:13.835Z,4.00
2023-03-06T14:59:58.062Z,4.55
2023-03-06T15:02:32.766Z,4.15
2023-03-06T15:05:06.447Z,4.15
2023-03-06T15:07:33.890Z,3.80
2023-03-06T15:10:01.393Z,2.80
2023-03-06T15:12:31.017Z,3.55
2023-03-06T15:15:18.322Z,3.40
2023-03-06T15:17:48.818Z,4.80
2023-03-06T15:20:54.081Z,3.67
2023-03-06T15:23:40.072Z,1.88
2023-03-06T15:26:38.337Z,1.80
2023-03-06T15:29:24.944Z,3.70
2023-03-06T15:31:52.081Z,1.95
2023-03-06T15:34:24.736Z,3.63
2023-03-06T15:36:57.836Z,3.58
2023-03-06T15:39:46.410Z,1.95
2023-03-06T15:42:25.017Z,2.92
2023-03-06T15:45:05.602Z,3.42
2023-03-06T15:47:32.993Z,2.55
2023-03-06T15:49:59.884Z,2.50
2023-03-06T15:52:27.321Z,1.90
2023-03-06T15:54:54.862Z,3.47
2023-03-06T15:57:29.279Z,3.30
2023-03-06T15:59:57.533Z,3.40
2023-03-06T16:02:24.937Z,3.13
2023-03-06T16:04:52.884Z,4.82
2023-03-06T16:07:20.764Z,3.50
2023-03-06T16:09:48.122Z,3.50
2023-03-06T16:12:20.980Z,3.30
2023-03-06T16:14:48.929Z,3.63
2023-03-06T16:17:17.344Z,2.95
2023-03-06T16:19:44.586Z,3.10
2023-03-06T16:22:11.841Z,3.88
2023-03-06T16:24:39.033Z,4.10
2023-03-06T16:27:06.889Z,4.03
2023-03-06T16:29:35.036Z,3.78
2023-03-06T16:32:02.726Z,4.20
2023-03-06T16:34:29.698Z,3.38
2023-03-06T16:36:56.796Z,2.97
2023-03-06T16:39:24.634Z,4.80
2023-03-06T16:41:52.351Z,4.00
2023-03-06T16:44:20.679Z,4.57
2023-03-06T16:46:50.160Z,3.05
2023-03-06T16:49:26.407Z,3.92
2023-03-06T16:51:54.746Z,2.23
2023-03-06T16:54:24.143Z,4.37
2023-03-06T16:56:51.723Z,2.63
2023-03-06T16:59:18.853Z,3.47
2023-03-06T17:01:46.241Z,3.70
2023-03-06T17:04:13.304Z,4.57
2023-03-06T17:06:41.849Z,4.30
2023-03-06T17:09:10.895Z,4.60
2023-03-06T17:11:45.647Z,4.53
2023-03-06T17:14:13.042Z,4.03
2023-03-06T17:16:40.668Z,5.40
2023-03-06T17:19:08.242Z,5.33
2023-03-06T17:21:37.315Z,5.63
2023-03-06T17:24:05.304Z,5.20
2023-03-06T17:26:32.718Z,5.80
2023-03-06T17:28:59.625Z,5.73
2023-03-06T17:31:28.359Z,3.67
2023-03-06T17:34:00.264Z,3.77
2023-03-06T17:36:28.887Z,4.10
2023-03-06T17:38:57.507Z,3.63
2023-03-06T17:41:24.947Z,5.20
2023-03-06T17:43:55.060Z,4.97
2023-03-06T17:46:22.493Z,4.13
2023-03-06T17:48:49.926Z,5.07
2023-03-06T17:51:16.844Z,3.03
2023-03-06T17:53:43.794Z,4.70
2023-03-06T17:56:14.055Z,5.47
2023-03-06T17:58:41.431Z,4.83
2023-03-06T18:01:19.276Z,5.10
2023-03-06T18:03:49.766Z,4.03
2023-03-06T18:06:18.154Z,5.20
2023-03-06T18:08:46.524Z,4.43
2023-03-06T18:11:14.377Z,3.83
2023-03-06T18:13:43.997Z,5.77
2023-03-06T18:16:13.736Z,4.40
2023-03-06T18:18:41.435Z,5.20
2023-03-06T18:21:13.744Z,4.27
2023-03-06T18:26:15.784Z,4.73
2023-03-06T18:28:47.242Z,4.00
2023-03-06T18:31:27.870Z,4.68
2023-03-06T18:34:00.417Z,3.73
2023-03-06T18:36:31.491Z,4.30
2023-03-06T18:38:59.231Z,4.80
2023-03-06T18:41:26.301Z,4.67
2023-03-06T18:43:55.243Z,3.57
2023-03-06T18:46:23.577Z,3.83
2023-03-06T18:48:50.959Z,5.30
2023-03-06T18:51:19.482Z,5.93
2023-03-06T18:53:46.608Z,5.77
2023-03-06T18:56:20.384Z,4.00
2023-03-06T18:58:48.314Z,3.47
2023-03-06T19:01:15.271Z,4.10
2023-03-06T19:03:42.608Z,5.77
2023-03-06T19:06:12.388Z,6.37
2023-03-06T19:08:40.738Z,4.90
2023-03-06T19:11:15.055Z,5.00
2023-03-06T19:13:43.286Z,5.67
2023-03-06T19:16:18.593Z,4.93
2023-03-06T19:18:46.003Z,4.97
2023-03-06T19:21:19.750Z,5.57
2023-03-06T19:23:47.363Z,4.57
2023-03-06T19:26:15.478Z,4.33
2023-03-06T19:28:43.489Z,4.80
2023-03-06T19:31:24.797Z,5.33
2023-03-06T19:33:53.267Z,5.20
2023-03-06T19:36:27.360Z,4.70
2023-03-06T19:38:55.704Z,5.20
2023-03-06T19:41:23.166Z,7.00
2023-03-06T19:43:53.255Z,3.73
2023-03-06T19:46:21.769Z,4.67
2023-03-06T19:48:53.769Z,6.10
2023-03-06T19:51:20.768Z,5.80
2023-03-06T19:53:50.902Z,5.80
2023-03-06T19:56:27.204Z,5.50
2023-03-06T19:58:54.612Z,10.77
2023-03-06T20:01:24.691Z,4.43
2023-03-06T20:03:58.776Z,7.13
2023-03-06T20:06:33.673Z,5.87
2023-03-06T20:09:03.312Z,5.47
2023-03-06T20:11:30.437Z,5.33
2023-03-06T20:13:59.166Z,4.57
2023-03-06T20:16:30.162Z,3.97
2023-03-06T20:19:00.147Z,5.20
2023-03-06T20:21:30.208Z,7.30
2023-03-06T20:23:58.177Z,5.20
2023-03-06T20:26:28.394Z,4.77
2023-03-06T20:28:55.900Z,4.30
2023-03-06T20:31:26.716Z,4.50
2023-03-06T20:33:55.403Z,4.90
2023-03-06T20:36:27.687Z,4.73
2023-03-06T20:41:28.180Z,4.60
2023-03-06T20:43:55.244Z,3.40
2023-03-06T20:46:23.521Z,4.93
2023-03-06T20:48:52.328Z,3.80
2023-03-06T20:51:28.606Z,5.30
2023-03-06T20:53:55.909Z,4.73
2023-03-06T20:56:27.096Z,4.53
2023-03-06T20:58:54.280Z,4.60
2023-03-06T21:01:28.988Z,4.37
2023-03-06T21:03:57.393Z,4.90
2023-03-06T21:06:25.615Z,3.57
2023-03-06T21:08:52.705Z,4.00
2023-03-06T21:11:19.654Z,4.07
2023-03-06T21:13:46.592Z,5.27
2023-03-06T21:16:16.825Z,4.97
2023-03-06T21:18:44.672Z,3.57
2023-03-06T21:21:18.415Z,5.23
2023-03-06T21:23:46.687Z,4.17
2023-03-06T21:26:20.146Z,4.70
2023-03-06T21:28:47.810Z,4.00
2023-03-06T21:31:17.566Z,4.90
2023-03-06T21:33:45.531Z,3.80
2023-03-06T21:36:13.035Z,4.03
2023-03-06T21:38:40.618Z,4.03
2023-03-06T21:41:17.180Z,3.50
2023-03-06T21:43:44.421Z,5.20
2023-03-06T21:46:12.133Z,3.37
2023-03-06T21:48:39.552Z,3.70
2023-03-06T21:51:11.043Z,5.10
2023-03-06T21:53:41.056Z,5.05
2023-03-06T21:56:09.406Z,4.27
2023-03-06T21:58:37.074Z,4.33
2023-03-06T22:01:17.009Z,4.23
2023-03-06T22:03:43.955Z,3.63
2023-03-06T22:06:14.141Z,3.37
2023-03-06T22:08:42.126Z,4.90
2023-03-06T22:11:12.431Z,4.33
2023-03-06T22:13:40.018Z,3.50
2023-03-06T22:16:08.139Z,4.07
2023-03-06T22:18:36.218Z,5.03
2023-03-06T22:21:10.901Z,4.57
2023-03-06T22:23:38.374Z,3.30
2023-03-06T22:26:08.705Z,4.27
2023-03-06T22:28:36.129Z,4.30
2023-03-06T22:31:19.439Z,3.27
2023-03-06T22:33:46.905Z,3.53
2023-03-06T22:36:16.185Z,3.77
2023-03-06T22:38:45.272Z,3.67
2023-03-06T22:41:15.154Z,3.53
2023-03-06T22:43:42.986Z,4.30
2023-03-06T22:46:17.009Z,4.60
2023-03-06T22:48:44.842Z,4.70
2023-03-06T22:51:16.584Z,5.37
2023-03-06T22:53:44.251Z,5.50
2023-03-06T22:56:15.111Z,3.40
2023-03-06T22:58:44.712Z,3.70
2023-03-06T23:01:15.168Z,4.20
2023-03-06T23:03:45.426Z,4.27
2023-03-06T23:06:24.885Z,3.57
2023-03-06T23:09:03.480Z,3.80
2023-03-06T23:11:31.426Z,3.93
2023-03-06T23:14:18.868Z,3.70
2023-03-06T23:17:04.777Z,3.10
2023-03-06T23:19:50.328Z,3.07
2023-03-06T23:22:36.047Z,5.07
2023-03-06T23:25:22.230Z,4.13
2023-03-06T23:27:49.139Z,4.07
2023-03-06T23:30:16.145Z,5.33
2023-03-06T23:32:45.733Z,1.77
2023-03-06T23:35:13.696Z,3.80
2023-03-06T23:37:40.883Z,4.90
2023-03-06T23:40:09.549Z,4.27
2023-03-06T23:42:36.956Z,3.87
2023-03-06T23:45:04.325Z,5.27
2023-03-06T23:47:33.113Z,3.63
2023-03-06T23:50:00.056Z,3.33
2023-03-06T23:52:27.244Z,4.13
2023-03-06T23:54:54.282Z,3.07
2023-03-06T23:57:21.630Z,4.63
2023-03-06T23:59:48.922Z,3.73
